気象予報士の航空気象 寒冷前線通過、そして冬型へ

*All archives   *Admin

スポンサーサイト

上記の広告は1ヶ月以上更新のないブログに表示されています。
新しい記事を書く事で広告が消せます。
--:--  |  スポンサー広告  |  EDIT  |  Top↑

2010.01.28 (Thu)

寒冷前線通過、そして冬型へ

 今日は南風が強かったですね。


早朝から、強風。午前4時です。

RJTT 271909Z 21020G30KT CAVOK 13/04 Q1013 RMK A2993


午前6時でも南西の強風
RJTT 272046Z 21019G29KT CAVOK 13/05 Q1011 RMK A2987

RJTT 272100Z 21021G32KT CAVOK 13/05 Q1011 RMK A2986

RJTT 272130Z 21024G34KT 9999 SCT050 BKN170 BKN/// 13/05 Q1011


 通勤がだるくなります。


羽田で雨が降ったのは午後1時。


東京も似たり寄ったりでしょう。

RJTT 280400Z 19017KT 9999 -SHRA SCT015 BKN020 BKN030 15/10 Q1005 RMK 3CU015 5CU020 7SC030 A2969



 風が北に回り始めるのが、午後6時ごろ。

RJTT 280800Z 19006KT 9999 FEW015 BKN/// 15/12 Q1003 RMK 1CU015 A2964

RJTT 280830Z 26004KT 180V290 9999 FEW015 BKN/// 15/11 Q1003 RMK 1CU015 A2964

RJTT 280900Z 28007KT 9999 FEW015 BKN/// 13/11 Q1004 RMK 1CU015 A2966

RJTT 280930Z 30007KT 9999 FEW015 BKN/// 13/11 Q1005


RJTT 281100Z 29006KT 9999 FEW020 SCT150 BKN/// 11/03 Q1005 RMK 1CU020 3AC150 A2970


 めでたく寒冷前線が通過していきました。


冬型の気圧配置になった関東の天気はもちろん乾いた晴れです。気温も上がります。


午後9時にはスカッ晴れです。空気も乾燥しています。

RJTT 281200Z 34011KT CAVOK 13/03 Q1005 RMK A2970


雨降ったのに、もう火の元注意です。



 METARを追いかけると、前線の通過とその影響について理解が深まりますよ。





ブログランキングに参加しています。
にほんブログ村 環境ブログ 天気・気象学へ
にほんブログ村
応援クリックをおねがします。


以下、アフィリエイトサイトです。




スポンサーサイト
23:53  |  気象・天気  |  TB(0)  |  CM(0)  |  EDIT  |  Top↑

コメントを投稿する


 管理者だけに表示  (非公開コメント投稿可能)

▲PageTop

この記事のトラックバックURL

→http://weathereucalyptus.blog115.fc2.com/tb.php/375-ed605591
この記事にトラックバックする(FC2ブログユーザー)

この記事へのトラックバック

▲PageTop

 | BLOGTOP | 
上記広告は1ヶ月以上更新のないブログに表示されています。新しい記事を書くことで広告を消せます。